Terminal Aerodrome Forecast
Issued by NWS

Home | Current Version | Previous Version | Graphics & Text | Print | Product List | Glossary On
Versions: 1 2 3 4 5 6 7 8 9 10 11 12
000
FTUS43 KICT 191700
TAFSLN
TAF
KSLN 191736Z 1918/2018 19027G37KT P6SM BKN250
     FM200100 17014G22KT P6SM SCT120 BKN200
     FM201500 19015G24KT P6SM SCT070 BKN120=

USA.gov is the U.S. government's official web portal to all federal, state and local government web resources and services.